Time;durP1;ratioP1;P1;durP2;ratioP2;P2;SDS_P1;SDS_P2;PMS_P1;PMS_P2;Temp;Humidity;BMP_temperature;BMP_pressure;BME280_temperature;BME280_humidity;BME280_pressure;Samples;Min_cycle;Max_cycle;Signal;HPM_P1;HPM_P2
2022/07/11 00:01:09;;;;;;;1.92;0.93;;;;;;;17.96;69.28;102534.75;5053602;27;96783;-34
2022/07/11 00:03:34;;;;;;;3.33;1.20;;;;;;;17.97;69.51;102536.50;5052853;27;98116;-34
2022/07/11 00:06:00;;;;;;;4.55;1.40;;;;;;;17.96;69.29;102537.50;5053143;27;102076;-34
2022/07/11 00:08:25;;;;;;;3.35;0.93;;;;;;;17.91;69.96;102525.97;5053348;27;96667;-34
2022/07/11 00:10:51;;;;;;;3.85;1.00;;;;;;;17.93;69.50;102535.84;5052594;27;96747;-34
2022/07/11 00:13:16;;;;;;;3.83;0.80;;;;;;;17.87;69.68;102529.88;5053211;27;97885;-34
2022/07/11 00:15:42;;;;;;;1.83;1.23;;;;;;;17.84;69.42;102514.50;5052834;27;99125;-34
2022/07/11 00:18:10;;;;;;;4.00;1.30;;;;;;;17.84;70.05;102522.72;5052649;27;104965;-34
2022/07/11 00:20:35;;;;;;;2.70;0.90;;;;;;;17.79;69.21;102517.50;5053739;27;96854;-34
2022/07/11 00:23:01;;;;;;;4.72;1.40;;;;;;;17.78;70.52;102514.84;5052683;27;99400;-34
2022/07/11 00:25:26;;;;;;;5.35;1.33;;;;;;;17.84;70.05;102530.97;5051253;27;98750;-34
2022/07/11 00:27:51;;;;;;;3.65;1.02;;;;;;;17.82;69.21;102517.34;5051835;27;104084;-34
2022/07/11 00:30:17;;;;;;;5.18;1.33;;;;;;;17.87;69.22;102529.88;5053047;27;96811;-34
2022/07/11 00:32:43;;;;;;;3.22;1.20;;;;;;;17.84;69.56;102525.47;5051148;27;101370;-33
2022/07/11 00:35:08;;;;;;;3.22;1.20;;;;;;;17.89;69.28;102525.16;5052700;27;97753;-34
2022/07/11 00:37:34;;;;;;;1.70;1.00;;;;;;;17.88;69.71;102516.06;5051453;27;96578;-34
2022/07/11 00:39:59;;;;;;;2.67;1.00;;;;;;;17.84;69.55;102517.25;5052892;27;96843;-34
2022/07/11 00:42:25;;;;;;;3.85;1.13;;;;;;;17.82;69.65;102513.72;5052420;27;98892;-33
2022/07/11 00:44:50;;;;;;;4.20;0.98;;;;;;;17.93;69.85;102524.00;5050756;27;100755;-34
2022/07/11 00:47:15;;;;;;;11.73;1.20;;;;;;;17.89;69.11;102509.59;5052797;27;96480;-34
2022/07/11 00:49:41;;;;;;;2.83;0.95;;;;;;;17.96;69.29;102529.28;5052842;27;96811;-34
2022/07/11 00:52:08;;;;;;;7.30;1.15;;;;;;;17.94;69.31;102512.91;5051978;27;97924;-33
2022/07/11 00:54:34;;;;;;;1.55;0.80;;;;;;;17.99;69.70;102518.09;5051109;27;100894;-35
2022/07/11 00:56:59;;;;;;;3.85;1.20;;;;;;;17.96;69.49;102518.31;5052170;27;96606;-34
2022/07/11 00:59:25;;;;;;;6.38;1.00;;;;;;;18.02;69.05;102524.28;5052584;27;96757;-34
2022/07/11 01:01:50;;;;;;;3.13;1.10;;;;;;;18.02;69.91;102523.41;5052176;27;99768;-33
2022/07/11 01:04:16;;;;;;;8.93;2.17;;;;;;;17.97;69.22;102509.09;5052395;27;97275;-34
2022/07/11 01:06:41;;;;;;;4.95;2.08;;;;;;;17.99;69.22;102523.56;5052529;27;96570;-34
2022/07/11 01:09:06;;;;;;;6.28;3.00;;;;;;;17.90;69.42;102518.69;5052411;27;98057;-33
2022/07/11 01:11:32;;;;;;;8.30;3.35;;;;;;;17.96;70.07;102523.78;5051552;27;98052;-34
2022/07/11 01:13:58;;;;;;;6.53;3.35;;;;;;;17.96;69.41;102524.66;5052534;27;97257;-34
2022/07/11 01:16:23;;;;;;;8.23;4.20;;;;;;;17.94;69.38;102525.75;5051553;27;96753;-34
2022/07/11 01:18:53;;;;;;;6.32;3.03;;;;;;;17.91;69.59;102525.97;5050879;27;96799;-34
2022/07/11 01:21:35;;;;;;;7.78;3.78;;;;;;;17.87;70.16;102522.53;5050642;27;100892;-34
2022/07/11 01:24:02;;;;;;;11.95;4.07;;;;;;;17.93;69.89;102532.22;5051442;27;96577;-34
2022/07/11 01:26:29;;;;;;;8.52;3.38;;;;;;;17.93;69.62;102521.25;5050793;27;96618;-34
2022/07/11 01:29:04;;;;;;;9.00;3.47;;;;;;;17.90;69.57;102516.84;5050592;27;96868;-34
2022/07/11 01:31:29;;;;;;;11.55;3.83;;;;;;;17.95;69.31;102522.03;5050602;27;101114;-34
2022/07/11 01:33:55;;;;;;;6.28;3.30;;;;;;;17.93;68.94;102524.00;5051997;27;97883;-33
2022/07/11 01:36:20;;;;;;;5.75;3.13;;;;;;;17.95;69.43;102528.41;5051987;27;96568;-34
2022/07/11 01:38:45;;;;;;;9.45;3.00;;;;;;;17.92;69.66;102519.47;5051781;27;101485;-34
2022/07/11 01:41:11;;;;;;;5.65;2.50;;;;;;;17.94;69.17;102520.25;5051755;27;98806;-34
2022/07/11 01:43:36;;;;;;;7.85;2.85;;;;;;;17.93;69.21;102522.13;5051791;27;99294;-34
2022/07/11 01:46:01;;;;;;;7.65;2.85;;;;;;;17.96;69.33;102527.41;5051966;27;96653;-34
2022/07/11 01:48:27;;;;;;;4.13;1.50;;;;;;;17.94;69.69;102514.78;5051604;27;96803;-34
2022/07/11 01:50:53;;;;;;;4.28;1.70;;;;;;;17.89;69.76;102508.72;5051615;27;97868;-34
2022/07/11 01:53:18;;;;;;;5.57;1.25;;;;;;;17.91;70.14;102506.75;5051829;27;98013;-34
2022/07/11 01:55:44;;;;;;;2.45;1.08;;;;;;;17.92;69.51;102511.25;5053564;27;96464;-34
2022/07/11 01:58:09;;;;;;;4.35;1.13;;;;;;;17.91;71.10;102515.00;5055545;27;96765;-34
2022/07/11 02:00:35;;;;;;;0.80;0.70;;;;;;;17.90;69.67;102529.66;5055127;27;97987;-34
2022/07/11 02:03:00;;;;;;;5.38;1.33;;;;;;;17.89;70.18;102516.94;5055166;27;97389;-34
2022/07/11 02:05:25;;;;;;;1.58;1.00;;;;;;;17.91;70.13;102518.59;5054469;27;96469;-34
2022/07/11 02:10:35;;;;;;;2.88;1.10;;;;;;;17.84;70.82;102509.03;5054645;27;96973;-34
2022/07/11 02:13:00;;;;;;;2.97;1.55;;;;;;;17.84;70.55;102509.03;5054903;27;97873;-34
2022/07/11 02:15:27;;;;;;;2.55;1.17;;;;;;;17.83;69.98;102510.03;5055169;27;96394;-34
2022/07/11 02:17:52;;;;;;;2.70;1.40;;;;;;;17.87;70.14;102516.16;5053557;27;96735;-33
2022/07/11 02:20:21;;;;;;;4.43;1.58;;;;;;;17.86;70.88;102498.84;5054754;27;98352;-34
2022/07/11 02:22:48;;;;;;;4.55;1.67;;;;;;;17.81;70.06;102488.19;5053664;27;100865;-34
2022/07/11 02:25:14;;;;;;;5.68;1.55;;;;;;;17.91;70.04;102509.50;5053453;27;96671;-34
2022/07/11 02:27:39;;;;;;;1.95;1.30;;;;;;;17.90;69.82;102508.63;5053283;27;96837;-34
2022/07/11 02:30:05;;;;;;;3.25;1.52;;;;;;;17.92;69.92;102512.13;5054308;27;98004;-34
2022/07/11 02:32:31;;;;;;;5.22;2.05;;;;;;;17.92;69.69;102503.91;5053033;27;100515;-34
2022/07/11 02:34:56;;;;;;;6.18;1.27;;;;;;;17.92;69.81;102500.28;5052940;27;96962;-34
2022/07/11 02:37:22;;;;;;;3.00;1.23;;;;;;;17.94;70.12;102501.06;5055132;27;96800;-34
2022/07/11 02:39:47;;;;;;;6.82;1.70;;;;;;;17.96;69.81;102505.47;5054257;27;99376;-34
2022/07/11 02:42:13;;;;;;;4.07;1.80;;;;;;;17.98;70.29;102511.72;5054299;27;99572;-33
2022/07/11 02:44:38;;;;;;;4.32;1.92;;;;;;;17.90;69.90;102500.41;5054629;27;96429;-34
2022/07/11 02:47:04;;;;;;;2.85;1.45;;;;;;;17.88;69.98;102499.63;5055048;27;96775;-35
2022/07/11 02:49:30;;;;;;;5.75;1.90;;;;;;;17.97;69.92;102506.34;5054212;27;99065;-34
2022/07/11 02:51:56;;;;;;;4.65;1.70;;;;;;;17.99;69.58;102512.59;5054465;27;97947;-34
2022/07/11 02:54:21;;;;;;;4.72;1.52;;;;;;;18.01;69.41;102516.13;5052506;27;97133;-34
2022/07/11 02:56:47;;;;;;;3.78;1.85;;;;;;;17.95;70.06;102497.38;5054116;27;96820;-34
2022/07/11 02:59:12;;;;;;;6.43;2.10;;;;;;;18.01;70.15;102513.38;5054245;27;97348;-34
2022/07/11 03:01:38;;;;;;;3.83;1.77;;;;;;;18.00;70.41;102509.78;5054158;27;97755;-34
2022/07/11 03:04:03;;;;;;;4.10;2.05;;;;;;;18.02;70.56;102515.16;5053954;27;97865;-34
2022/07/11 03:06:29;;;;;;;5.10;1.50;;;;;;;17.98;69.75;102505.38;5053849;27;96810;-34
2022/07/11 03:08:54;;;;;;;4.25;1.95;;;;;;;17.99;69.96;102496.16;5053701;27;99634;-34
2022/07/11 03:11:19;;;;;;;2.47;1.50;;;;;;;18.05;70.13;102509.47;5053914;27;97242;-34
2022/07/11 03:13:45;;;;;;;10.85;2.25;;;;;;;18.03;70.19;102489.50;5054117;27;96473;-33
2022/07/11 03:16:10;;;;;;;3.47;1.50;;;;;;;17.98;69.90;102499.88;5054138;27;96767;-34
2022/07/11 03:18:36;;;;;;;4.97;1.63;;;;;;;17.97;70.09;102492.63;5053059;27;99228;-33
2022/07/11 03:21:01;;;;;;;4.60;1.83;;;;;;;17.98;70.41;102506.25;5054004;27;96834;-34
2022/07/11 03:23:26;;;;;;;2.17;1.40;;;;;;;17.95;69.82;102505.59;5054155;27;96789;-34
2022/07/11 03:25:52;;;;;;;2.92;1.42;;;;;;;18.02;70.21;102515.16;5054212;27;96688;-34
2022/07/11 03:28:17;;;;;;;2.15;1.20;;;;;;;17.96;70.28;102505.47;5053859;27;97079;-34
2022/07/11 03:30:42;;;;;;;3.78;1.63;;;;;;;18.02;70.58;102515.16;5053603;27;101437;-33
2022/07/11 03:33:08;;;;;;;4.20;1.13;;;;;;;17.97;70.26;102507.25;5053694;27;96757;-34
2022/07/11 03:35:42;;;;;;;4.25;1.45;;;;;;;18.00;70.29;102504.28;5054344;27;96841;-34
2022/07/11 03:38:08;;;;;;;4.57;1.15;;;;;;;17.95;70.08;102509.22;5053838;27;98132;-34
2022/07/11 03:40:34;;;;;;;5.32;1.20;;;;;;;17.99;70.28;102504.38;5052198;27;100830;-34
2022/07/11 03:42:59;;;;;;;8.02;1.55;;;;;;;17.99;70.07;102507.13;5053223;27;96428;-34
2022/07/11 03:45:24;;;;;;;2.72;1.42;;;;;;;17.96;70.44;102491.75;5053690;27;96771;-34
2022/07/11 03:47:50;;;;;;;11.23;1.98;;;;;;;18.01;69.92;102516.13;5053191;27;97331;-34
2022/07/11 03:50:16;;;;;;;3.15;1.50;;;;;;;18.00;70.51;102504.28;5053146;27;98971;-34
2022/07/11 03:52:42;;;;;;;4.10;2.10;;;;;;;18.02;70.38;102499.59;5051962;27;96647;-34
2022/07/11 03:55:08;;;;;;;7.53;2.78;;;;;;;17.96;70.38;102496.38;5052004;27;96889;-34
2022/07/11 03:57:33;;;;;;;4.82;2.80;;;;;;;17.98;70.75;102499.88;5053272;27;99023;-34
2022/07/11 03:59:59;;;;;;;4.78;2.10;;;;;;;17.98;70.58;102499.88;5053312;27;99239;-34
2022/07/11 04:02:25;;;;;;;3.85;2.28;;;;;;;18.03;70.26;102516.91;5052005;27;96634;-34
2022/07/11 04:04:50;;;;;;;6.30;1.60;;;;;;;18.04;70.92;102510.44;5051948;27;96877;-34
2022/07/11 04:07:16;;;;;;;8.40;2.15;;;;;;;18.02;70.17;102505.06;5052503;27;99259;-34
2022/07/11 04:09:41;;;;;;;5.47;1.83;;;;;;;18.04;70.13;102504.94;5052948;27;99402;-34
2022/07/11 04:12:07;;;;;;;3.50;1.73;;;;;;;18.01;70.09;102502.41;5052985;27;96452;-34
2022/07/11 04:14:32;;;;;;;6.07;2.40;;;;;;;18.06;70.61;102511.22;5052961;27;96796;-34
2022/07/11 04:16:58;;;;;;;10.90;2.60;;;;;;;18.02;70.11;102502.34;5052900;27;97829;-34
2022/07/11 04:19:23;;;;;;;4.28;2.08;;;;;;;17.99;70.71;102505.25;5051787;27;97679;-34
2022/07/11 04:21:49;;;;;;;6.97;1.75;;;;;;;18.01;70.47;102505.16;5053004;27;96522;-34
2022/07/11 04:24:14;;;;;;;4.07;2.20;;;;;;;18.01;70.38;102497.81;5053534;27;96793;-34
2022/07/11 04:26:40;;;;;;;4.18;1.95;;;;;;;18.09;70.08;102510.13;5052919;27;97573;-34
2022/07/11 04:29:07;;;;;;;8.85;2.00;;;;;;;18.05;70.16;102506.72;5051237;27;100730;-34
2022/07/11 04:31:32;;;;;;;2.70;1.65;;;;;;;18.11;70.29;102510.91;5050785;27;97082;-33
2022/07/11 04:33:58;;;;;;;3.42;1.90;;;;;;;18.05;70.20;102501.25;5052586;27;96918;-34
2022/07/11 04:36:23;;;;;;;5.60;1.85;;;;;;;18.08;71.09;102502.91;5053014;27;97351;-34
2022/07/11 04:38:49;;;;;;;3.70;1.40;;;;;;;18.06;70.82;102515.81;5052681;27;100141;-34
2022/07/11 04:41:14;;;;;;;3.05;1.23;;;;;;;17.98;70.76;102503.50;5052509;27;96633;-34
2022/07/11 04:43:40;;;;;;;4.82;1.02;;;;;;;17.99;71.24;102513.47;5052867;27;96685;-34
2022/07/11 04:46:05;;;;;;;1.02;0.70;;;;;;;17.97;70.76;102503.59;5052508;27;97892;-34
2022/07/11 04:48:31;;;;;;;5.65;1.08;;;;;;;17.94;70.64;102493.72;5052970;27;97714;-34
2022/07/11 04:50:57;;;;;;;2.85;1.17;;;;;;;17.91;71.79;102488.44;5051190;27;96636;-34
2022/07/11 04:53:23;;;;;;;2.42;0.90;;;;;;;18.00;70.72;102518.00;5051029;27;96927;-34
2022/07/11 04:55:48;;;;;;;0.82;0.60;;;;;;;17.99;70.35;102513.47;5052056;27;97423;-34
2022/07/11 04:58:14;;;;;;;3.03;0.75;;;;;;;17.99;70.48;102513.47;5052271;27;98414;-33
2022/07/11 05:00:39;;;;;;;2.55;0.85;;;;;;;18.01;70.49;102510.66;5052388;27;96565;-34
2022/07/11 05:03:04;;;;;;;1.25;0.75;;;;;;;17.96;70.66;102504.59;5052275;27;96754;-34
2022/07/11 05:05:30;;;;;;;8.00;1.38;;;;;;;18.03;71.10;102519.66;5052401;27;97451;-34
2022/07/11 05:07:56;;;;;;;1.35;0.93;;;;;;;17.97;70.89;102510.00;5051865;27;99149;-34
2022/07/11 05:10:21;;;;;;;0.93;0.52;;;;;;;18.02;71.40;102523.41;5051871;27;96743;-34
2022/07/11 05:12:46;;;;;;;2.70;1.00;;;;;;;17.96;71.19;102515.56;5052751;27;96775;-34
2022/07/11 05:15:12;;;;;;;4.82;1.10;;;;;;;17.96;71.24;102521.03;5051947;27;102341;-34
2022/07/11 05:17:37;;;;;;;2.10;1.05;;;;;;;17.96;70.89;102527.41;5052267;27;97204;-34
2022/07/11 05:20:03;;;;;;;1.83;0.93;;;;;;;17.95;71.29;102525.66;5052046;27;96652;-34
2022/07/11 05:22:29;;;;;;;3.85;0.98;;;;;;;17.98;71.19;102528.19;5050827;27;96962;-33
2022/07/11 05:24:54;;;;;;;3.17;1.17;;;;;;;18.00;70.94;102533.59;5052160;27;97872;-34
2022/07/11 05:27:19;;;;;;;2.03;1.20;;;;;;;17.95;70.61;102522.03;5052012;27;97404;-33
2022/07/11 05:29:45;;;;;;;2.20;1.40;;;;;;;18.01;70.88;102541.69;5052317;27;96747;-34
2022/07/11 05:32:10;;;;;;;4.18;1.00;;;;;;;17.99;70.93;102546.38;5055757;27;96820;-34
2022/07/11 05:34:37;;;;;;;3.63;1.23;;;;;;;17.99;71.96;102551.88;5055029;27;99352;-34
2022/07/11 05:37:02;;;;;;;1.65;1.10;;;;;;;17.94;71.31;102547.69;5054267;27;100838;-34
2022/07/11 05:39:27;;;;;;;3.53;1.40;;;;;;;17.97;71.36;102558.44;5055385;27;96646;-34
2022/07/11 05:41:53;;;;;;;5.00;1.25;;;;;;;17.95;71.53;102554.94;5055662;27;96530;-33
2022/07/11 05:44:18;;;;;;;1.45;1.13;;;;;;;17.99;71.41;102556.47;5054527;27;99015;-34
2022/07/11 05:46:45;;;;;;;2.22;1.23;;;;;;;17.94;71.11;102554.03;5055467;27;97757;-34
2022/07/11 05:49:10;;;;;;;3.53;1.38;;;;;;;18.01;71.05;102565.50;5053853;27;96520;-34
2022/07/11 05:51:36;;;;;;;1.55;1.10;;;;;;;17.95;71.52;102555.81;5055405;27;96882;-34
2022/07/11 05:54:02;;;;;;;2.03;1.20;;;;;;;17.96;71.91;102553.94;5053746;27;100936;-33
2022/07/11 05:56:27;;;;;;;7.43;1.75;;;;;;;18.00;71.39;102564.63;5053438;27;100814;-34
2022/07/11 05:58:53;;;;;;;4.55;1.30;;;;;;;17.93;71.36;102551.41;5054958;27;96689;-33
2022/07/11 06:01:20;;;;;;;4.53;1.38;;;;;;;18.02;71.31;102564.53;5055661;27;96853;-33
2022/07/11 06:03:46;;;;;;;1.40;0.90;;;;;;;18.05;71.26;102564.31;5053592;27;101262;-34
2022/07/11 06:06:11;;;;;;;3.28;1.17;;;;;;;17.99;71.10;102561.97;5054994;27;97837;-33
2022/07/11 06:08:40;;;;;;;3.40;1.50;;;;;;;18.03;71.22;102569.03;5054269;27;96589;-34
2022/07/11 06:11:05;;;;;;;4.93;1.77;;;;;;;17.99;71.44;102551.88;5054512;27;96803;-34
2022/07/11 06:13:31;;;;;;;3.15;1.20;;;;;;;18.06;71.17;102562.44;5054968;27;97986;-33
2022/07/11 06:15:56;;;;;;;2.22;1.30;;;;;;;18.08;71.70;102569.59;5054669;27;99140;-34
2022/07/11 06:18:23;;;;;;;5.80;1.42;;;;;;;18.01;70.98;102555.41;5054947;27;96575;-34
2022/07/11 06:20:49;;;;;;;5.07;1.30;;;;;;;18.02;71.36;102548.94;5053512;27;96880;-34
2022/07/11 06:23:15;;;;;;;1.52;1.17;;;;;;;18.08;71.68;102541.28;5054767;27;97905;-34
2022/07/11 06:25:40;;;;;;;1.60;1.00;;;;;;;18.10;70.77;102536.59;5053513;27;100368;-33
2022/07/11 06:28:06;;;;;;;4.80;1.40;;;;;;;18.18;71.17;102546.03;5054685;27;96617;-34
2022/07/11 06:30:32;;;;;;;6.38;1.20;;;;;;;18.22;70.98;102541.25;5054921;27;96717;-33
2022/07/11 06:32:57;;;;;;;3.90;1.45;;;;;;;18.16;70.62;102528.84;5053740;27;99384;-33
2022/07/11 06:35:23;;;;;;;4.95;1.08;;;;;;;18.22;71.00;102533.03;5054650;27;97812;-33
2022/07/11 06:37:49;;;;;;;2.78;0.73;;;;;;;18.17;71.38;102533.31;5054711;27;96548;-34
2022/07/11 06:40:17;;;;;;;3.45;1.60;;;;;;;18.12;70.91;102523.66;5054648;27;97804;-34
2022/07/11 06:42:45;;;;;;;9.25;2.08;;;;;;;18.23;71.33;102549.38;5052943;27;97900;-34
2022/07/11 06:45:11;;;;;;;3.22;1.30;;;;;;;18.22;71.47;102527.53;5054154;27;99691;-33
2022/07/11 06:47:36;;;;;;;4.53;1.20;;;;;;;18.24;71.11;102534.69;5054274;27;98197;-33
2022/07/11 06:50:02;;;;;;;5.82;1.13;;;;;;;18.28;70.90;102549.06;5055013;27;96813;-34
2022/07/11 06:52:28;;;;;;;3.05;1.55;;;;;;;18.28;71.58;102540.81;5052463;27;102074;-33
2022/07/11 06:54:53;;;;;;;2.20;1.30;;;;;;;18.29;71.29;102547.22;5054258;27;99133;-34
2022/07/11 06:57:18;;;;;;;3.35;1.50;;;;;;;18.29;70.85;102538.97;5052104;27;96572;-34
2022/07/11 06:59:44;;;;;;;3.72;1.30;;;;;;;18.22;71.58;102546.75;5054378;27;96475;-34
2022/07/11 07:02:09;;;;;;;4.40;1.33;;;;;;;18.20;71.35;102552.31;5054234;27;97218;-34
2022/07/11 07:04:34;;;;;;;3.88;1.30;;;;;;;18.22;70.98;102552.22;5054071;27;97329;-34
2022/07/11 07:07:01;;;;;;;3.05;1.50;;;;;;;18.26;71.05;102551.03;5054417;27;96587;-34
2022/07/11 07:09:27;;;;;;;9.38;1.70;;;;;;;18.29;70.86;102549.97;5052748;27;96820;-34
2022/07/11 07:11:54;;;;;;;2.70;1.23;;;;;;;18.34;71.04;102561.50;5052362;27;100957;-34
2022/07/11 07:14:19;;;;;;;7.22;1.27;;;;;;;18.36;70.79;102563.16;5052873;27;101191;-34
2022/07/11 07:16:44;;;;;;;3.88;1.63;;;;;;;18.32;70.77;102553.38;5053828;27;96665;-34
2022/07/11 07:19:10;;;;;;;3.60;1.50;;;;;;;18.40;71.20;102567.47;5054212;27;96856;-34
2022/07/11 07:21:35;;;;;;;6.28;1.85;;;;;;;18.37;70.82;102564.03;5053222;27;104902;-34
2022/07/11 07:24:00;;;;;;;4.63;1.58;;;;;;;18.39;70.46;102565.69;5053707;27;99194;-34
2022/07/11 07:26:26;;;;;;;3.60;0.93;;;;;;;18.36;71.16;102571.38;5053878;27;96614;-34
2022/07/11 07:28:51;;;;;;;6.35;1.15;;;;;;;18.45;70.99;102580.88;5053820;27;96777;-34
2022/07/11 07:31:16;;;;;;;5.05;1.20;;;;;;;18.48;70.86;102574.28;5053689;27;97945;-34
2022/07/11 07:33:42;;;;;;;2.08;1.05;;;;;;;18.45;70.64;102568.03;5053250;27;98691;-33
2022/07/11 07:36:07;;;;;;;2.90;1.60;;;;;;;18.50;71.04;102566.84;5053909;27;96603;-34
2022/07/11 07:38:33;;;;;;;5.57;1.50;;;;;;;18.49;70.91;102560.44;5053841;27;96871;-34
2022/07/11 07:40:58;;;;;;;4.40;1.63;;;;;;;18.47;70.64;102567.91;5053158;27;107199;-34
2022/07/11 07:43:23;;;;;;;2.38;1.42;;;;;;;18.48;70.63;102566.06;5053550;27;97789;-34
2022/07/11 07:45:49;;;;;;;6.25;1.58;;;;;;;18.52;71.00;102573.09;5053333;27;96519;-34
2022/07/11 07:48:23;;;;;;;3.17;1.20;;;;;;;18.55;70.56;102575.66;5053508;27;96750;-34
2022/07/11 07:50:48;;;;;;;2.78;1.10;;;;;;;18.53;70.79;102574.88;5053834;27;97353;-34
2022/07/11 07:53:14;;;;;;;5.70;1.60;;;;;;;18.54;70.78;102574.75;5052978;27;99088;-34
2022/07/11 07:55:40;;;;;;;2.28;1.20;;;;;;;18.53;70.57;102567.50;5051704;27;96529;-34
2022/07/11 07:58:05;;;;;;;1.55;1.20;;;;;;;18.55;70.55;102567.41;5053343;27;96774;-34
2022/07/11 08:03:14;;;;;;;3.13;1.27;;;;;;;18.68;70.45;102571.94;5053735;27;97005;-34
2022/07/11 08:05:40;;;;;;;3.08;1.38;;;;;;;18.72;69.90;102575.38;5053073;27;96583;-34
2022/07/11 08:08:05;;;;;;;4.00;1.63;;;;;;;18.74;70.13;102575.28;5052687;27;103014;-33
2022/07/11 08:10:31;;;;;;;2.30;1.30;;;;;;;18.77;69.66;102569.59;5052183;27;97834;-33
2022/07/11 08:12:56;;;;;;;5.95;1.50;;;;;;;18.78;70.13;102576.81;5053089;27;97449;-33
2022/07/11 08:15:21;;;;;;;3.10;1.38;;;;;;;18.82;70.15;102572.91;5053299;27;96475;-34
2022/07/11 08:17:47;;;;;;;3.72;1.17;;;;;;;18.95;69.73;102583.91;5053153;27;96800;-34
2022/07/11 08:20:12;;;;;;;3.25;1.42;;;;;;;18.95;70.33;102576.56;5053177;27;97374;-34
2022/07/11 08:22:37;;;;;;;2.88;1.40;;;;;;;18.99;69.58;102574.47;5052714;27;97807;-34
2022/07/11 08:25:03;;;;;;;2.03;1.20;;;;;;;19.09;69.26;102581.06;5053205;27;96505;-34
2022/07/11 08:27:28;;;;;;;2.83;1.42;;;;;;;19.05;69.91;102572.19;5053400;27;96783;-34
2022/07/11 08:29:54;;;;;;;4.47;1.73;;;;;;;19.09;69.60;102584.72;5052399;27;107576;-34
2022/07/11 08:32:19;;;;;;;5.72;1.65;;;;;;;19.09;69.42;102578.31;5052773;27;97248;-34
2022/07/11 08:34:45;;;;;;;6.90;1.67;;;;;;;19.15;69.18;102575.16;5052205;27;96484;-34
2022/07/11 08:37:10;;;;;;;3.22;1.73;;;;;;;19.18;69.13;102579.56;5052545;27;96828;-34
2022/07/11 08:39:36;;;;;;;3.03;1.75;;;;;;;19.25;68.77;102581.75;5052711;27;98204;-34
2022/07/11 08:42:01;;;;;;;5.55;1.98;;;;;;;19.35;69.15;102587.47;5052779;27;96579;-34
2022/07/11 08:44:27;;;;;;;6.10;2.25;;;;;;;19.34;68.77;102573.88;5052436;27;96682;-34
2022/07/11 08:46:53;;;;;;;6.50;2.85;;;;;;;19.41;68.67;102580.69;5053075;27;96760;-33
2022/07/11 08:49:18;;;;;;;7.93;2.20;;;;;;;19.41;68.86;102576.06;5052378;27;99391;-34
2022/07/11 08:51:44;;;;;;;4.25;2.03;;;;;;;19.44;68.59;102584.06;5052993;27;97357;-33
2022/07/11 08:54:11;;;;;;;7.53;2.33;;;;;;;19.44;68.71;102581.31;5052342;27;96568;-33
2022/07/11 08:56:37;;;;;;;3.55;1.83;;;;;;;19.49;68.73;102587.38;5050962;27;96922;-34
2022/07/11 08:59:04;;;;;;;3.80;1.55;;;;;;;19.52;68.46;102570.69;5052023;27;97922;-34
2022/07/11 09:01:37;;;;;;;2.50;1.25;;;;;;;19.59;68.41;102578.47;5033940;27;100902;-34
2022/07/11 09:04:02;;;;;;;6.35;1.67;;;;;;;19.70;67.84;102570.34;5050989;27;96794;-34
2022/07/11 09:06:28;;;;;;;5.88;1.70;;;;;;;19.75;67.69;102565.41;5057906;27;96783;-34
2022/07/11 09:08:59;;;;;;;13.63;1.60;;;;;;;19.84;67.75;102567.47;5056939;27;100912;-33
2022/07/11 09:11:25;;;;;;;3.47;1.75;;;;;;;19.92;67.15;102567.78;5058558;27;98023;-34
2022/07/11 09:13:50;;;;;;;3.50;2.10;;;;;;;19.96;67.18;102573.06;5057304;27;96639;-34
2022/07/11 09:16:17;;;;;;;3.88;1.83;;;;;;;19.93;67.25;102566.81;5059673;27;96856;-34
2022/07/11 09:18:42;;;;;;;4.20;2.20;;;;;;;19.97;67.02;102574.81;5057256;27;101265;-34
2022/07/11 09:26:46;;;;;;;11.98;3.78;;;;;;;20.19;66.52;102575.00;5059379;27;96408;-33
2022/07/11 09:29:13;;;;;;;10.57;3.47;;;;;;;20.24;66.74;102560.91;5057141;27;101107;-34
2022/07/11 09:31:41;;;;;;;6.07;2.78;;;;;;;20.57;65.81;102568.50;5057150;27;101042;-33
2022/07/11 09:34:10;;;;;;;8.13;3.25;;;;;;;20.63;65.43;102570.75;5057204;27;96646;-34
2022/07/11 09:36:35;;;;;;;8.05;3.40;;;;;;;20.60;65.86;102570.13;5057481;27;96839;-33
2022/07/11 09:39:03;;;;;;;10.30;3.13;;;;;;;20.58;65.92;102557.34;5058650;27;97474;-34
2022/07/11 09:41:33;;;;;;;7.50;3.55;;;;;;;20.76;65.62;102560.56;5058950;27;98066;-34
2022/07/11 09:44:28;;;;;;;8.23;3.17;;;;;;;21.32;64.31;102567.22;5057011;27;96712;-34
2022/07/11 09:46:54;;;;;;;6.07;2.55;;;;;;;21.30;63.99;102569.22;5055484;27;96861;-34
2022/07/11 09:49:37;;;;;;;5.03;2.40;;;;;;;21.17;64.11;102575.72;5056614;27;101168;-34
2022/07/11 09:52:14;;;;;;;8.80;3.10;;;;;;;21.26;63.89;102570.47;5057188;27;100706;-34
2022/07/11 09:55:00;;;;;;;7.13;3.38;;;;;;;21.19;63.46;102575.63;5058855;27;96693;-34
2022/07/11 09:57:32;;;;;;;5.03;2.75;;;;;;;21.25;64.27;102585.25;5058559;27;96934;-34
2022/07/11 09:59:59;;;;;;;5.95;2.83;;;;;;;21.37;64.04;102578.75;5056658;27;100938;-34
2022/07/11 10:02:25;;;;;;;9.05;3.35;;;;;;;21.41;63.77;102574.81;5056893;27;101636;-33
2022/07/11 10:04:52;;;;;;;14.05;3.17;;;;;;;21.39;63.52;102569.41;5056939;27;96652;-34
2022/07/11 10:07:17;;;;;;;5.57;2.65;;;;;;;21.34;63.53;102566.09;5058580;27;96839;-34
2022/07/11 10:09:43;;;;;;;6.18;2.67;;;;;;;21.77;62.61;102583.84;5058228;27;97956;-34
2022/07/11 10:12:08;;;;;;;4.80;2.38;;;;;;;22.12;61.50;102569.91;5058393;27;97523;-34
2022/07/11 10:14:38;;;;;;;6.80;2.15;;;;;;;22.17;61.31;102569.53;5058057;27;96724;-34
2022/07/11 10:17:25;;;;;;;9.95;2.83;;;;;;;22.05;61.32;102575.06;5054723;27;97306;-34
2022/07/11 10:20:04;;;;;;;5.05;2.65;;;;;;;21.94;61.42;102564.03;5054752;27;98867;-34
2022/07/11 10:22:48;;;;;;;8.70;3.40;;;;;;;22.19;60.85;102570.25;5053454;27;100927;-34
2022/07/11 10:25:33;;;;;;;8.00;3.50;;;;;;;22.66;59.14;102566.25;5053483;27;96661;-34
2022/07/11 10:28:12;;;;;;;6.28;2.88;;;;;;;22.93;58.49;102564.00;5054890;27;96547;-34
2022/07/11 10:30:50;;;;;;;7.88;2.80;;;;;;;23.31;56.94;102568.97;5053301;27;100655;-34
2022/07/11 10:33:17;;;;;;;9.48;3.15;;;;;;;23.60;57.47;102565.53;5053389;27;101088;-34
2022/07/11 10:35:44;;;;;;;8.73;3.67;;;;;;;23.65;57.03;102565.97;5053385;27;96712;-33
2022/07/11 10:38:10;;;;;;;13.25;5.18;;;;;;;23.89;56.66;102579.50;5053122;27;96992;-34
2022/07/11 10:40:57;;;;;;;12.35;5.20;;;;;;;24.10;55.57;102563.69;5052604;27;101118;-34
2022/07/11 10:43:22;;;;;;;13.57;4.60;;;;;;;24.35;55.36;102576.13;5053201;27;100777;-34
2022/07/11 10:46:02;;;;;;;12.27;4.87;;;;;;;24.35;53.88;102569.72;5054706;27;96608;-34
2022/07/11 10:48:31;;;;;;;16.73;5.32;;;;;;;24.35;55.39;102566.97;5054174;27;96710;-34
2022/07/11 10:51:21;;;;;;;11.30;4.80;;;;;;;24.31;53.55;102571.03;5052851;27;100960;-34
2022/07/11 10:53:49;;;;;;;9.02;4.85;;;;;;;24.30;54.92;102569.28;5035983;27;100572;-34
2022/07/11 10:56:39;;;;;;;11.75;5.40;;;;;;;24.41;55.06;102571.94;5052953;27;96615;-34
2022/07/11 10:59:15;;;;;;;17.35;5.95;;;;;;;24.74;54.38;102567.91;5053351;27;96744;-34
2022/07/11 11:02:05;;;;;;;12.90;5.90;;;;;;;24.98;53.35;102564.69;5054161;27;98033;-34
2022/07/11 11:04:43;;;;;;;14.07;6.15;;;;;;;25.05;52.74;102565.00;5054238;27;97790;-34
2022/07/11 11:07:38;;;;;;;14.80;5.60;;;;;;;25.23;51.32;102562.34;5053436;27;97152;-34
2022/07/11 11:10:07;;;;;;;13.05;5.13;;;;;;;25.24;52.63;102564.09;5051063;27;96891;-34
2022/07/11 11:13:07;;;;;;;10.90;4.95;;;;;;;25.42;52.51;102553.97;5054168;27;97913;-34
2022/07/11 11:15:35;;;;;;;11.65;5.25;;;;;;;25.34;52.34;102550.22;5053901;27;97808;-34
2022/07/11 11:18:25;;;;;;;10.82;5.15;;;;;;;25.16;52.38;102553.72;5054163;27;96428;-33
2022/07/11 11:21:02;;;;;;;10.05;4.68;;;;;;;25.28;52.28;102548.03;5052637;27;96853;-34
2022/07/11 11:23:38;;;;;;;13.05;4.93;;;;;;;25.33;52.40;102562.31;5052331;27;101071;-34
2022/07/11 11:26:22;;;;;;;11.27;4.30;;;;;;;25.37;51.96;102550.78;5052529;27;101167;-33
2022/07/11 11:29:06;;;;;;;10.90;4.25;;;;;;;25.54;51.83;102562.13;5051894;27;96717;-34
2022/07/11 11:31:31;;;;;;;12.77;4.82;;;;;;;25.64;52.67;102561.06;5052334;27;96832;-34
2022/07/11 11:33:58;;;;;;;9.68;3.88;;;;;;;25.79;51.92;102558.69;5052928;27;97373;-34